UAE568 OMDB-VOBL
Flight info
| Callsign | UAE568 |
|---|---|
| Flight time | N/A |
| Altitude | 39000 |
| Route | ANVIX L223 TARDI N629 TOTOX P574 BBM W78 SUSIK SUSIK7E |
| Aircraft | A388/J-SADE2E3FGHIJ3J4J5M1RWXY/LB1D1 |
Departure
| Time | 2026-04-22 18:03 |
|---|---|
| Airport | Dubai International Airport (OMDB) |
Arrival
| Time | N/A |
|---|---|
| Airport | Kempegowda International Airport Bengaluru (VOBL) |
| Time | Latitude | Longitude | Altitude | Speed | Heading |
|---|---|---|---|---|---|
| 2026-04-22 17:19 | 25.24192 | 55.37250 | 28 ft | 0 kts | 31° |
| 2026-04-22 17:53 | 25.24191 | 55.37250 | 23 ft | 1 kts | 31° |
| 2026-04-22 17:53 | 25.24171 | 55.37236 | 26 ft | 4 kts | 31° |
| 2026-04-22 17:53 | 25.24151 | 55.37223 | 31 ft | 2 kts | 31° |
| 2026-04-22 17:54 | 25.24132 | 55.37206 | 30 ft | 4 kts | 57° |
| 2026-04-22 17:54 | 25.24125 | 55.37181 | 30 ft | 4 kts | 103° |
| 2026-04-22 17:54 | 25.24135 | 55.37156 | 33 ft | 4 kts | 122° |
| 2026-04-22 17:54 | 25.24149 | 55.37130 | 31 ft | 4 kts | 122° |
| 2026-04-22 17:55 | 25.24154 | 55.37121 | 31 ft | 1 kts | 122° |
| 2026-04-22 17:59 | 25.24153 | 55.37122 | 31 ft | 2 kts | 121° |
| 2026-04-22 17:59 | 25.24133 | 55.37162 | 32 ft | 9 kts | 117° |
| 2026-04-22 18:00 | 25.24111 | 55.37216 | 30 ft | 13 kts | 111° |
| 2026-04-22 18:00 | 25.24029 | 55.37350 | 29 ft | 19 kts | 126° |
| 2026-04-22 18:00 | 25.23967 | 55.37481 | 26 ft | 19 kts | 92° |
| 2026-04-22 18:00 | 25.24014 | 55.37611 | 31 ft | 19 kts | 36° |
| 2026-04-22 18:01 | 25.24134 | 55.37686 | 30 ft | 21 kts | 29° |
| 2026-04-22 18:01 | 25.24264 | 55.37766 | 26 ft | 22 kts | 29° |
| 2026-04-22 18:01 | 25.24390 | 55.37866 | 28 ft | 22 kts | 35° |
| 2026-04-22 18:01 | 25.24516 | 55.37964 | 30 ft | 23 kts | 34° |
| 2026-04-22 18:02 | 25.24653 | 55.38065 | 29 ft | 23 kts | 26° |
| 2026-04-22 18:02 | 25.24780 | 55.38075 | 31 ft | 16 kts | 320° |
| 2026-04-22 18:02 | 25.24851 | 55.37948 | 30 ft | 38 kts | 300° |
| 2026-04-22 18:02 | 25.25159 | 55.37393 | 32 ft | 125 kts | 301° |
| 2026-04-22 18:03 | 25.25629 | 55.36547 | 60 ft | 167 kts | 302° |
| 2026-04-22 18:03 | 25.25913 | 55.36035 | 308 ft | 169 kts | 302° |
| 2026-04-22 18:03 | 25.26510 | 55.34971 | 808 ft | 171 kts | 303° |
| 2026-04-22 18:04 | 25.27134 | 55.33850 | 1402 ft | 173 kts | 302° |
| 2026-04-22 18:04 | 25.27779 | 55.32683 | 1890 ft | 184 kts | 301° |
| 2026-04-22 18:04 | 25.28397 | 55.31566 | 2237 ft | 191 kts | 301° |
| 2026-04-22 18:04 | 25.29019 | 55.30436 | 2645 ft | 193 kts | 298° |
| 2026-04-22 18:05 | 25.29304 | 55.29015 | 3160 ft | 192 kts | 262° |
| 2026-04-22 18:05 | 25.28839 | 55.27711 | 3637 ft | 192 kts | 242° |
| 2026-04-22 18:05 | 25.28226 | 55.26367 | 3949 ft | 202 kts | 245° |
| 2026-04-22 18:05 | 25.27620 | 55.24956 | 4361 ft | 203 kts | 246° |
| 2026-04-22 18:06 | 25.27026 | 55.23542 | 4774 ft | 204 kts | 245° |
| 2026-04-22 18:06 | 25.26428 | 55.22123 | 5223 ft | 202 kts | 245° |
| 2026-04-22 18:06 | 25.25835 | 55.20718 | 5607 ft | 205 kts | 245° |
| 2026-04-22 18:06 | 25.25201 | 55.19222 | 5755 ft | 228 kts | 245° |
| 2026-04-22 18:07 | 25.24347 | 55.17729 | 6409 ft | 233 kts | 224° |
| 2026-04-22 18:07 | 25.22939 | 55.16840 | 7278 ft | 238 kts | 197° |
| 2026-04-22 18:07 | 25.21278 | 55.16755 | 8138 ft | 245 kts | 179° |
| 2026-04-22 18:07 | 25.19546 | 55.17061 | 8779 ft | 261 kts | 161° |
| 2026-04-22 18:08 | 25.18041 | 55.18216 | 9679 ft | 271 kts | 134° |
| 2026-04-22 18:08 | 25.17036 | 55.20021 | 10432 ft | 283 kts | 121° |
| 2026-04-22 18:08 | 25.16088 | 55.22028 | 10829 ft | 304 kts | 121° |
| 2026-04-22 18:08 | 25.15116 | 55.24094 | 11557 ft | 309 kts | 120° |
| 2026-04-22 18:09 | 25.14116 | 55.26206 | 12341 ft | 313 kts | 121° |
| 2026-04-22 18:09 | 25.13093 | 55.28349 | 13082 ft | 319 kts | 120° |
| 2026-04-22 18:09 | 25.12050 | 55.30522 | 13829 ft | 322 kts | 120° |
| 2026-04-22 18:09 | 25.10991 | 55.32724 | 14522 ft | 327 kts | 120° |
| 2026-04-22 18:10 | 25.10009 | 55.35003 | 15187 ft | 332 kts | 116° |
| 2026-04-22 18:10 | 25.09056 | 55.37339 | 15855 ft | 336 kts | 116° |
| 2026-04-22 18:10 | 25.08081 | 55.39710 | 16523 ft | 341 kts | 116° |
| 2026-04-22 18:10 | 25.07093 | 55.42106 | 17180 ft | 345 kts | 116° |
| 2026-04-22 18:11 | 25.06106 | 55.44586 | 17452 ft | 364 kts | 115° |
| 2026-04-22 18:11 | 25.05099 | 55.47221 | 17645 ft | 382 kts | 114° |
| 2026-04-22 18:11 | 25.04044 | 55.49998 | 17846 ft | 400 kts | 114° |
| 2026-04-22 18:11 | 25.02956 | 55.52850 | 18322 ft | 406 kts | 114° |
| 2026-04-22 18:12 | 25.01804 | 55.55701 | 18845 ft | 409 kts | 119° |
| 2026-04-22 18:12 | 25.00363 | 55.58416 | 19398 ft | 411 kts | 123° |
| 2026-04-22 18:12 | 24.99382 | 55.60209 | 19744 ft | 414 kts | 123° |
| 2026-04-22 18:12 | 24.97414 | 55.63842 | 20438 ft | 419 kts | 123° |
| 2026-04-22 18:13 | 24.95921 | 55.66609 | 20951 ft | 422 kts | 123° |
| 2026-04-22 18:13 | 24.94409 | 55.69403 | 21479 ft | 425 kts | 124° |
| 2026-04-22 18:13 | 24.92714 | 55.72080 | 21965 ft | 428 kts | 129° |
| 2026-04-22 18:13 | 24.90941 | 55.74731 | 22472 ft | 431 kts | 129° |
| 2026-04-22 18:14 | 24.89167 | 55.77403 | 22983 ft | 434 kts | 129° |
| 2026-04-22 18:14 | 24.87373 | 55.80110 | 23456 ft | 438 kts | 129° |
| 2026-04-22 18:14 | 24.85571 | 55.82829 | 23872 ft | 441 kts | 129° |
| 2026-04-22 18:14 | 24.83757 | 55.85565 | 24323 ft | 444 kts | 129° |
| 2026-04-22 18:15 | 24.81914 | 55.88309 | 24759 ft | 447 kts | 129° |
| 2026-04-22 18:15 | 24.80043 | 55.91066 | 25177 ft | 451 kts | 129° |
| 2026-04-22 18:15 | 24.78151 | 55.93845 | 25630 ft | 454 kts | 129° |
| 2026-04-22 18:15 | 24.76122 | 55.96499 | 26115 ft | 454 kts | 138° |
| 2026-04-22 18:16 | 24.73772 | 55.98833 | 26575 ft | 456 kts | 142° |
| 2026-04-22 18:16 | 24.71345 | 56.01107 | 27084 ft | 460 kts | 142° |
| 2026-04-22 18:16 | 24.68919 | 56.03438 | 27593 ft | 465 kts | 141° |
| 2026-04-22 18:16 | 24.66510 | 56.05832 | 28068 ft | 469 kts | 140° |
| 2026-04-22 18:17 | 24.64102 | 56.08279 | 28631 ft | 473 kts | 140° |
| 2026-04-22 18:17 | 24.61717 | 56.10727 | 29146 ft | 477 kts | 139° |
| 2026-04-22 18:17 | 24.59285 | 56.13230 | 29657 ft | 482 kts | 139° |
| 2026-04-22 18:17 | 24.56827 | 56.15761 | 30148 ft | 486 kts | 139° |
| 2026-04-22 18:18 | 24.54346 | 56.18313 | 30582 ft | 491 kts | 139° |
| 2026-04-22 18:18 | 24.51844 | 56.20884 | 31024 ft | 495 kts | 140° |
| 2026-04-22 18:18 | 24.49318 | 56.23478 | 31464 ft | 499 kts | 140° |
| 2026-04-22 18:18 | 24.46770 | 56.26094 | 31885 ft | 504 kts | 140° |
| 2026-04-22 18:19 | 24.44195 | 56.28735 | 32281 ft | 508 kts | 140° |
| 2026-04-22 18:19 | 24.41595 | 56.31402 | 32681 ft | 513 kts | 140° |
| 2026-04-22 18:19 | 24.38976 | 56.34086 | 33099 ft | 518 kts | 140° |
| 2026-04-22 18:19 | 24.36325 | 56.36799 | 33552 ft | 521 kts | 140° |
| 2026-04-22 18:20 | 24.33660 | 56.39525 | 33914 ft | 526 kts | 140° |
| 2026-04-22 18:20 | 24.30972 | 56.42274 | 34214 ft | 531 kts | 140° |
| 2026-04-22 18:20 | 24.28248 | 56.45059 | 34549 ft | 536 kts | 140° |
| 2026-04-22 18:20 | 24.25514 | 56.47853 | 34947 ft | 539 kts | 140° |
| 2026-04-22 18:21 | 24.22767 | 56.50658 | 35361 ft | 541 kts | 140° |
| 2026-04-22 18:21 | 24.20007 | 56.53474 | 35775 ft | 544 kts | 141° |
| 2026-04-22 18:21 | 24.17238 | 56.56299 | 36208 ft | 546 kts | 141° |
| 2026-04-22 18:21 | 24.14450 | 56.59140 | 36680 ft | 547 kts | 141° |
| 2026-04-22 18:22 | 24.11698 | 56.61943 | 37081 ft | 549 kts | 141° |
| 2026-04-22 18:22 | 24.08892 | 56.64799 | 37493 ft | 551 kts | 141° |
| 2026-04-22 18:22 | 24.06082 | 56.67656 | 37895 ft | 553 kts | 141° |
| 2026-04-22 18:22 | 24.03257 | 56.70527 | 38307 ft | 555 kts | 141° |
| 2026-04-22 18:23 | 24.00419 | 56.73410 | 38686 ft | 556 kts | 141° |
| 2026-04-22 18:23 | 23.97579 | 56.76294 | 38871 ft | 562 kts | 141° |
| 2026-04-22 18:23 | 23.94725 | 56.79190 | 38860 ft | 556 kts | 141° |
| 2026-04-22 18:24 | 23.86209 | 56.87822 | 38855 ft | 557 kts | 141° |
| 2026-04-22 18:25 | 23.77711 | 56.96417 | 38858 ft | 557 kts | 141° |
| 2026-04-22 18:25 | 23.72013 | 57.02170 | 38872 ft | 557 kts | 141° |
| 2026-04-22 18:26 | 23.63473 | 57.10776 | 38870 ft | 556 kts | 141° |
| 2026-04-22 18:26 | 23.57786 | 57.16502 | 38866 ft | 555 kts | 141° |
| 2026-04-22 18:27 | 23.52100 | 57.22218 | 38874 ft | 556 kts | 141° |
| 2026-04-22 18:27 | 23.46408 | 57.27931 | 38887 ft | 557 kts | 141° |
| 2026-04-22 18:28 | 23.40742 | 57.33622 | 38917 ft | 557 kts | 141° |
| 2026-04-22 18:28 | 23.35031 | 57.39339 | 38895 ft | 558 kts | 141° |
| 2026-04-22 18:29 | 23.29313 | 57.45055 | 38936 ft | 558 kts | 141° |
| 2026-04-22 18:29 | 23.23599 | 57.50771 | 38948 ft | 558 kts | 141° |
| 2026-04-22 18:30 | 23.15009 | 57.59340 | 38939 ft | 559 kts | 141° |
| 2026-04-22 18:31 | 23.09271 | 57.65058 | 38943 ft | 559 kts | 141° |
| 2026-04-22 18:31 | 23.03577 | 57.70725 | 38922 ft | 559 kts | 141° |
| 2026-04-22 18:32 | 22.98774 | 57.75498 | 38920 ft | 559 kts | 141° |
| 2026-04-22 18:32 | 22.92102 | 57.82122 | 38918 ft | 559 kts | 141° |
| 2026-04-22 18:33 | 22.86363 | 57.87811 | 38900 ft | 558 kts | 141° |
| 2026-04-22 18:33 | 22.81595 | 57.92533 | 38897 ft | 558 kts | 141° |
| 2026-04-22 18:34 | 22.75855 | 57.98211 | 38896 ft | 558 kts | 141° |
| 2026-04-22 18:34 | 22.70112 | 58.03884 | 38886 ft | 558 kts | 140° |
| 2026-04-22 18:35 | 22.64381 | 58.09539 | 38892 ft | 557 kts | 140° |
| 2026-04-22 18:35 | 22.58644 | 58.15193 | 38897 ft | 557 kts | 140° |
| 2026-04-22 18:36 | 22.52941 | 58.20808 | 38899 ft | 557 kts | 140° |
| 2026-04-22 18:36 | 22.47210 | 58.26443 | 38885 ft | 557 kts | 140° |
| 2026-04-22 18:37 | 22.41472 | 58.32080 | 38894 ft | 556 kts | 140° |
| 2026-04-22 18:37 | 22.35742 | 58.37703 | 38891 ft | 556 kts | 140° |
| 2026-04-22 18:38 | 22.30001 | 58.43329 | 38893 ft | 556 kts | 140° |
| 2026-04-22 18:38 | 22.24266 | 58.48942 | 38883 ft | 556 kts | 140° |
| 2026-04-22 18:39 | 22.15693 | 58.57323 | 38893 ft | 556 kts | 140° |
| 2026-04-22 18:39 | 22.09960 | 58.62918 | 38896 ft | 556 kts | 140° |
| 2026-04-22 18:40 | 22.04213 | 58.68521 | 38894 ft | 556 kts | 140° |
| 2026-04-22 18:40 | 21.98474 | 58.74110 | 38894 ft | 556 kts | 140° |
| 2026-04-22 18:41 | 21.92732 | 58.79696 | 38892 ft | 556 kts | 140° |
| 2026-04-22 18:41 | 21.86986 | 58.85278 | 38887 ft | 556 kts | 140° |
| 2026-04-22 18:42 | 21.81242 | 58.90853 | 38886 ft | 556 kts | 140° |
| 2026-04-22 18:42 | 21.75495 | 58.96423 | 38880 ft | 555 kts | 140° |
| 2026-04-22 18:43 | 21.69751 | 59.01986 | 38879 ft | 555 kts | 140° |
| 2026-04-22 18:43 | 21.64044 | 59.07506 | 38884 ft | 555 kts | 140° |
| 2026-04-22 18:44 | 21.58303 | 59.13052 | 38879 ft | 555 kts | 140° |
| 2026-04-22 18:44 | 21.52556 | 59.18598 | 38874 ft | 554 kts | 140° |
| 2026-04-22 18:45 | 21.46818 | 59.24129 | 38871 ft | 554 kts | 140° |
| 2026-04-22 18:45 | 21.41084 | 59.29651 | 38867 ft | 554 kts | 140° |
| 2026-04-22 18:46 | 21.35341 | 59.35175 | 38871 ft | 554 kts | 140° |
| 2026-04-22 18:46 | 21.29635 | 59.40656 | 38864 ft | 553 kts | 139° |
| 2026-04-22 18:47 | 21.23903 | 59.46158 | 38865 ft | 553 kts | 139° |
| 2026-04-22 18:47 | 21.18172 | 59.51652 | 38867 ft | 553 kts | 139° |
| 2026-04-22 18:48 | 21.12439 | 59.57142 | 38866 ft | 553 kts | 140° |
| 2026-04-22 18:48 | 21.06702 | 59.62629 | 38866 ft | 552 kts | 139° |
| 2026-04-22 18:49 | 21.01186 | 59.68339 | 38875 ft | 552 kts | 128° |
| 2026-04-22 18:49 | 20.99068 | 59.71749 | 38874 ft | 551 kts | 116° |
| 2026-04-22 18:49 | 20.97545 | 59.75504 | 38873 ft | 548 kts | 105° |
| 2026-04-22 18:50 | 20.96679 | 59.79438 | 38867 ft | 542 kts | 94° |
| 2026-04-22 18:50 | 20.96394 | 59.83399 | 38865 ft | 539 kts | 89° |
| 2026-04-22 18:50 | 20.96036 | 59.91408 | 38872 ft | 539 kts | 89° |
| 2026-04-22 18:51 | 20.95578 | 59.99419 | 38872 ft | 539 kts | 90° |
| 2026-04-22 18:51 | 20.95067 | 60.07422 | 38871 ft | 539 kts | 90° |
| 2026-04-22 18:52 | 20.94546 | 60.15437 | 38868 ft | 539 kts | 90° |
| 2026-04-22 18:52 | 20.94023 | 60.23383 | 38881 ft | 538 kts | 90° |
| 2026-04-22 18:53 | 20.93492 | 60.31413 | 38874 ft | 538 kts | 90° |
| 2026-04-22 18:53 | 20.92964 | 60.39339 | 38870 ft | 537 kts | 90° |
| 2026-04-22 18:54 | 20.92426 | 60.47352 | 38883 ft | 536 kts | 90° |
| 2026-04-22 18:54 | 20.91889 | 60.55300 | 38885 ft | 535 kts | 90° |
| 2026-04-22 18:55 | 20.91349 | 60.63241 | 38875 ft | 535 kts | 90° |
| 2026-04-22 18:55 | 20.90805 | 60.71172 | 38871 ft | 534 kts | 90° |
| 2026-04-22 18:56 | 20.90259 | 60.79097 | 38878 ft | 534 kts | 90° |
| 2026-04-22 18:56 | 20.89712 | 60.86970 | 38876 ft | 533 kts | 90° |
| 2026-04-22 18:57 | 20.89159 | 60.94872 | 38873 ft | 533 kts | 90° |
| 2026-04-22 18:57 | 20.88603 | 61.02781 | 38868 ft | 532 kts | 90° |
| 2026-04-22 18:58 | 20.88044 | 61.10669 | 38875 ft | 532 kts | 91° |
| 2026-04-22 18:58 | 20.87482 | 61.18552 | 38871 ft | 531 kts | 91° |
| 2026-04-22 18:59 | 20.86921 | 61.26365 | 38869 ft | 530 kts | 91° |
| 2026-04-22 18:59 | 20.86354 | 61.34229 | 38878 ft | 530 kts | 91° |
| 2026-04-22 19:00 | 20.85783 | 61.42082 | 38874 ft | 529 kts | 91° |
| 2026-04-22 19:00 | 20.85209 | 61.49935 | 38870 ft | 529 kts | 91° |
| 2026-04-22 19:01 | 20.84632 | 61.57770 | 38867 ft | 529 kts | 91° |
| 2026-04-22 19:01 | 20.84052 | 61.65602 | 38865 ft | 528 kts | 91° |
| 2026-04-22 19:02 | 20.83468 | 61.73435 | 38864 ft | 528 kts | 91° |
| 2026-04-22 19:02 | 20.82882 | 61.81252 | 38866 ft | 528 kts | 91° |
| 2026-04-22 19:03 | 20.82291 | 61.89084 | 38865 ft | 528 kts | 91° |
| 2026-04-22 19:03 | 20.81701 | 61.96853 | 38874 ft | 527 kts | 92° |
| 2026-04-22 19:04 | 20.81104 | 62.04675 | 38869 ft | 527 kts | 92° |
| 2026-04-22 19:04 | 20.80504 | 62.12485 | 38869 ft | 527 kts | 92° |
| 2026-04-22 19:05 | 20.79901 | 62.20290 | 38868 ft | 527 kts | 92° |
| 2026-04-22 19:05 | 20.79293 | 62.28107 | 38873 ft | 527 kts | 92° |
| 2026-04-22 19:06 | 20.78682 | 62.35916 | 38873 ft | 527 kts | 92° |
| 2026-04-22 19:07 | 20.77765 | 62.47565 | 38869 ft | 527 kts | 92° |
| 2026-04-22 19:07 | 20.77145 | 62.55382 | 38879 ft | 527 kts | 92° |
| 2026-04-22 19:08 | 20.76522 | 62.63182 | 38876 ft | 527 kts | 92° |
| 2026-04-22 19:08 | 20.75895 | 62.70990 | 38874 ft | 527 kts | 92° |
| 2026-04-22 19:09 | 20.75267 | 62.78778 | 38876 ft | 527 kts | 92° |
| 2026-04-22 19:09 | 20.74741 | 62.85258 | 38896 ft | 526 kts | 92° |
| 2026-04-22 19:10 | 20.73998 | 62.94366 | 38887 ft | 526 kts | 92° |
| 2026-04-22 19:10 | 20.73362 | 63.02109 | 38886 ft | 526 kts | 92° |
| 2026-04-22 19:11 | 20.72720 | 63.09895 | 38883 ft | 525 kts | 92° |
| 2026-04-22 19:11 | 20.72075 | 63.17665 | 38897 ft | 525 kts | 92° |
| 2026-04-22 19:12 | 20.71427 | 63.25427 | 38890 ft | 524 kts | 92° |
| 2026-04-22 19:12 | 20.70777 | 63.33175 | 38887 ft | 524 kts | 92° |
| 2026-04-22 19:13 | 20.70123 | 63.40932 | 38883 ft | 523 kts | 92° |
| 2026-04-22 19:13 | 20.69471 | 63.48617 | 38896 ft | 522 kts | 93° |
| 2026-04-22 19:14 | 20.68811 | 63.56347 | 38892 ft | 522 kts | 93° |
| 2026-04-22 19:14 | 20.68150 | 63.64063 | 38892 ft | 521 kts | 93° |
| 2026-04-22 19:15 | 20.67597 | 63.70478 | 38888 ft | 521 kts | 93° |
| 2026-04-22 19:15 | 20.66818 | 63.79481 | 38893 ft | 520 kts | 93° |
| 2026-04-22 19:16 | 20.66149 | 63.87168 | 38889 ft | 520 kts | 93° |
| 2026-04-22 19:16 | 20.65476 | 63.94851 | 38883 ft | 519 kts | 93° |
| 2026-04-22 19:17 | 20.64800 | 64.02535 | 38881 ft | 519 kts | 93° |
| 2026-04-22 19:17 | 20.64122 | 64.10209 | 38887 ft | 519 kts | 93° |
| 2026-04-22 19:18 | 20.63439 | 64.17884 | 38883 ft | 519 kts | 93° |
| 2026-04-22 19:18 | 20.62759 | 64.25497 | 38882 ft | 518 kts | 93° |
| 2026-04-22 19:19 | 20.62071 | 64.33163 | 38881 ft | 518 kts | 93° |
| 2026-04-22 19:19 | 20.61380 | 64.40828 | 38882 ft | 518 kts | 94° |
| 2026-04-22 19:20 | 20.60803 | 64.47190 | 38887 ft | 518 kts | 94° |
| 2026-04-22 19:20 | 20.60105 | 64.54853 | 38884 ft | 518 kts | 94° |
| 2026-04-22 19:21 | 20.59404 | 64.62515 | 38884 ft | 518 kts | 94° |
| 2026-04-22 19:21 | 20.58700 | 64.70175 | 38883 ft | 518 kts | 94° |
| 2026-04-22 19:22 | 20.57998 | 64.77778 | 38871 ft | 518 kts | 94° |
| 2026-04-22 19:22 | 20.57289 | 64.85426 | 38872 ft | 518 kts | 94° |
| 2026-04-22 19:23 | 20.56569 | 64.93068 | 38869 ft | 518 kts | 96° |
| 2026-04-22 19:23 | 20.54994 | 65.00593 | 38868 ft | 521 kts | 107° |
| 2026-04-22 19:24 | 20.52165 | 65.07721 | 38885 ft | 522 kts | 117° |
| 2026-04-22 19:24 | 20.48775 | 65.14573 | 38880 ft | 523 kts | 117° |
| 2026-04-22 19:25 | 20.45416 | 65.21443 | 38871 ft | 523 kts | 117° |
| 2026-04-22 19:25 | 20.42042 | 65.28314 | 38874 ft | 523 kts | 117° |
| 2026-04-22 19:26 | 20.38677 | 65.35149 | 38877 ft | 523 kts | 117° |
| 2026-04-22 19:26 | 20.35289 | 65.42019 | 38881 ft | 523 kts | 117° |
| 2026-04-22 19:27 | 20.31897 | 65.48889 | 38895 ft | 524 kts | 117° |
| 2026-04-22 19:27 | 20.28504 | 65.55754 | 38897 ft | 524 kts | 117° |
| 2026-04-22 19:28 | 20.25105 | 65.62622 | 38902 ft | 524 kts | 117° |
| 2026-04-22 19:28 | 20.21701 | 65.69490 | 38901 ft | 524 kts | 117° |
| 2026-04-22 19:29 | 20.18303 | 65.76340 | 38902 ft | 524 kts | 117° |
| 2026-04-22 19:29 | 20.14897 | 65.83195 | 38901 ft | 523 kts | 117° |
| 2026-04-22 19:30 | 20.12065 | 65.88891 | 38891 ft | 524 kts | 117° |
| 2026-04-22 19:30 | 20.08099 | 65.96857 | 38891 ft | 524 kts | 117° |
| 2026-04-22 19:31 | 20.04687 | 66.03700 | 38883 ft | 524 kts | 117° |
| 2026-04-22 19:31 | 20.01269 | 66.10548 | 38885 ft | 524 kts | 117° |
| 2026-04-22 19:32 | 19.97848 | 66.17393 | 38880 ft | 524 kts | 117° |
| 2026-04-22 19:32 | 19.94429 | 66.24228 | 38886 ft | 524 kts | 117° |
| 2026-04-22 19:33 | 19.91017 | 66.31037 | 38892 ft | 524 kts | 117° |
| 2026-04-22 19:33 | 19.87589 | 66.37873 | 38894 ft | 524 kts | 117° |
| 2026-04-22 19:34 | 19.84162 | 66.44697 | 38889 ft | 524 kts | 118° |
| 2026-04-22 19:34 | 19.80727 | 66.51530 | 38882 ft | 524 kts | 117° |
| 2026-04-22 19:35 | 19.77285 | 66.58368 | 38898 ft | 524 kts | 117° |
| 2026-04-22 19:35 | 19.73848 | 66.65189 | 38890 ft | 524 kts | 118° |
| 2026-04-22 19:36 | 19.70408 | 66.72006 | 38887 ft | 524 kts | 118° |
| 2026-04-22 19:36 | 19.66968 | 66.78817 | 38890 ft | 524 kts | 118° |
| 2026-04-22 19:37 | 19.63524 | 66.85627 | 38892 ft | 524 kts | 118° |
| 2026-04-22 19:37 | 19.60071 | 66.92447 | 38915 ft | 523 kts | 118° |
| 2026-04-22 19:38 | 19.56643 | 66.99208 | 38910 ft | 522 kts | 118° |
| 2026-04-22 19:38 | 19.53204 | 67.05985 | 38908 ft | 522 kts | 118° |
| 2026-04-22 19:39 | 19.49764 | 67.12756 | 38888 ft | 521 kts | 118° |
| 2026-04-22 19:39 | 19.46325 | 67.19517 | 38890 ft | 521 kts | 118° |
| 2026-04-22 19:40 | 19.42882 | 67.26279 | 38907 ft | 520 kts | 118° |
| 2026-04-22 19:40 | 19.39450 | 67.33011 | 38909 ft | 519 kts | 118° |
| 2026-04-22 19:41 | 19.36016 | 67.39737 | 38886 ft | 518 kts | 118° |
| 2026-04-22 19:41 | 19.32600 | 67.46422 | 38896 ft | 518 kts | 118° |
| 2026-04-22 19:42 | 19.29175 | 67.53117 | 38891 ft | 517 kts | 118° |
| 2026-04-22 19:42 | 19.25752 | 67.59801 | 38898 ft | 516 kts | 118° |
| 2026-04-22 19:43 | 19.20620 | 67.69808 | 38893 ft | 515 kts | 118° |
| 2026-04-22 19:43 | 19.17203 | 67.76460 | 38880 ft | 514 kts | 118° |
| 2026-04-22 19:44 | 19.13789 | 67.83100 | 38871 ft | 513 kts | 118° |
| 2026-04-22 19:44 | 19.10396 | 67.89691 | 38878 ft | 513 kts | 118° |
| 2026-04-22 19:45 | 19.06983 | 67.96320 | 38885 ft | 512 kts | 118° |
| 2026-04-22 19:45 | 19.03582 | 68.02941 | 38882 ft | 512 kts | 118° |
| 2026-04-22 19:46 | 19.00244 | 68.09588 | 38871 ft | 512 kts | 118° |
| 2026-04-22 19:46 | 18.96909 | 68.16228 | 38866 ft | 512 kts | 118° |
| 2026-04-22 19:47 | 18.93565 | 68.22861 | 38867 ft | 511 kts | 118° |
| 2026-04-22 19:47 | 18.90240 | 68.29443 | 38868 ft | 511 kts | 118° |
| 2026-04-22 19:48 | 18.86897 | 68.36055 | 38869 ft | 510 kts | 118° |
| 2026-04-22 19:48 | 18.83553 | 68.42660 | 38880 ft | 510 kts | 118° |
| 2026-04-22 19:49 | 18.80211 | 68.49256 | 38874 ft | 509 kts | 118° |
| 2026-04-22 19:49 | 18.76865 | 68.55852 | 38877 ft | 509 kts | 118° |
| 2026-04-22 19:50 | 18.73520 | 68.62439 | 38877 ft | 509 kts | 118° |
| 2026-04-22 19:50 | 18.70176 | 68.69017 | 38877 ft | 508 kts | 118° |
| 2026-04-22 19:51 | 18.66854 | 68.75544 | 38876 ft | 508 kts | 118° |
| 2026-04-22 19:51 | 18.63490 | 68.82147 | 38875 ft | 508 kts | 118° |
| 2026-04-22 19:52 | 18.60145 | 68.88706 | 38882 ft | 508 kts | 118° |
| 2026-04-22 19:52 | 18.56823 | 68.95212 | 38874 ft | 507 kts | 118° |
| 2026-04-22 19:53 | 18.53475 | 69.01762 | 38846 ft | 508 kts | 118° |
| 2026-04-22 19:53 | 18.50121 | 69.08317 | 38853 ft | 508 kts | 118° |
| 2026-04-22 19:54 | 18.46765 | 69.14869 | 38847 ft | 508 kts | 118° |
| 2026-04-22 19:54 | 18.43413 | 69.21406 | 38870 ft | 507 kts | 119° |
| 2026-04-22 19:55 | 18.40049 | 69.27962 | 38870 ft | 507 kts | 119° |
| 2026-04-22 19:55 | 18.36788 | 69.34548 | 38868 ft | 507 kts | 116° |
| 2026-04-22 19:56 | 18.33756 | 69.41264 | 38862 ft | 507 kts | 116° |
| 2026-04-22 19:56 | 18.30700 | 69.47962 | 38835 ft | 508 kts | 116° |
| 2026-04-22 19:57 | 18.27635 | 69.54600 | 38861 ft | 508 kts | 117° |
| 2026-04-22 19:57 | 18.24534 | 69.61295 | 38859 ft | 508 kts | 117° |
| 2026-04-22 19:58 | 18.21440 | 69.67970 | 38860 ft | 508 kts | 117° |
| 2026-04-22 19:58 | 18.18342 | 69.74647 | 38859 ft | 508 kts | 117° |
| 2026-04-22 20:00 | 18.07469 | 69.98024 | 38861 ft | 508 kts | 117° |
| 2026-04-22 20:01 | 18.04359 | 70.04694 | 38845 ft | 508 kts | 117° |
| 2026-04-22 20:01 | 18.01262 | 70.11329 | 38846 ft | 508 kts | 117° |
| 2026-04-22 20:02 | 17.98143 | 70.18003 | 38847 ft | 509 kts | 117° |
| 2026-04-22 20:02 | 17.95024 | 70.24672 | 38857 ft | 509 kts | 118° |
| 2026-04-22 20:03 | 17.91900 | 70.31342 | 38851 ft | 509 kts | 118° |
| 2026-04-22 20:03 | 17.88776 | 70.38006 | 38849 ft | 509 kts | 118° |
| 2026-04-22 20:04 | 17.85645 | 70.44676 | 38850 ft | 509 kts | 118° |
| 2026-04-22 20:04 | 17.82513 | 70.51343 | 38850 ft | 509 kts | 118° |
| 2026-04-22 20:05 | 17.79378 | 70.58010 | 38860 ft | 509 kts | 118° |
| 2026-04-22 20:05 | 17.76237 | 70.64672 | 38854 ft | 509 kts | 118° |
| 2026-04-22 20:06 | 17.73109 | 70.71297 | 38851 ft | 509 kts | 118° |
| 2026-04-22 20:06 | 17.69966 | 70.77949 | 38850 ft | 509 kts | 118° |
| 2026-04-22 20:07 | 17.66813 | 70.84615 | 38837 ft | 509 kts | 118° |
| 2026-04-22 20:07 | 17.63661 | 70.91273 | 38833 ft | 510 kts | 118° |
| 2026-04-22 20:08 | 17.60512 | 70.97916 | 38837 ft | 510 kts | 119° |
| 2026-04-22 20:08 | 17.57349 | 71.04581 | 38845 ft | 510 kts | 119° |
| 2026-04-22 20:09 | 17.54210 | 71.11189 | 38838 ft | 510 kts | 119° |
| 2026-04-22 20:09 | 17.51051 | 71.17835 | 38818 ft | 510 kts | 119° |
| 2026-04-22 20:10 | 17.47884 | 71.24487 | 38833 ft | 510 kts | 119° |
| 2026-04-22 20:10 | 17.45225 | 71.30067 | 38836 ft | 510 kts | 119° |
| 2026-04-22 20:11 | 17.42056 | 71.36713 | 38836 ft | 510 kts | 119° |
| 2026-04-22 20:11 | 17.38881 | 71.43364 | 38835 ft | 510 kts | 119° |
| 2026-04-22 20:12 | 17.35705 | 71.50010 | 38836 ft | 511 kts | 119° |
| 2026-04-22 20:12 | 17.32548 | 71.56609 | 38841 ft | 511 kts | 120° |
| 2026-04-22 20:13 | 17.29361 | 71.63263 | 38844 ft | 511 kts | 120° |
| 2026-04-22 20:13 | 17.26176 | 71.69906 | 38845 ft | 511 kts | 120° |
| 2026-04-22 20:14 | 17.22985 | 71.76558 | 38824 ft | 511 kts | 120° |
| 2026-04-22 20:14 | 17.19797 | 71.83194 | 38830 ft | 511 kts | 120° |
| 2026-04-22 20:15 | 17.16605 | 71.89833 | 38829 ft | 511 kts | 120° |
| 2026-04-22 20:15 | 17.13406 | 71.96480 | 38829 ft | 511 kts | 121° |
| 2026-04-22 20:16 | 17.10205 | 72.03122 | 38827 ft | 511 kts | 121° |
| 2026-04-22 20:16 | 17.07046 | 72.09735 | 38827 ft | 512 kts | 120° |
| 2026-04-22 20:17 | 17.03921 | 72.16425 | 38823 ft | 512 kts | 120° |
| 2026-04-22 20:17 | 17.00793 | 72.23099 | 38824 ft | 512 kts | 120° |
| 2026-04-22 20:18 | 16.97651 | 72.29781 | 38828 ft | 512 kts | 120° |
| 2026-04-22 20:18 | 16.94509 | 72.36452 | 38826 ft | 511 kts | 121° |
| 2026-04-22 20:19 | 16.91367 | 72.43112 | 38823 ft | 511 kts | 121° |
| 2026-04-22 20:19 | 16.88220 | 72.49779 | 38822 ft | 511 kts | 121° |
| 2026-04-22 20:20 | 16.85092 | 72.56399 | 38821 ft | 511 kts | 121° |
| 2026-04-22 20:20 | 16.81950 | 72.63046 | 38826 ft | 511 kts | 122° |
| 2026-04-22 20:21 | 16.78799 | 72.69702 | 38821 ft | 511 kts | 122° |
| 2026-04-22 20:21 | 16.75632 | 72.76384 | 38820 ft | 511 kts | 122° |
| 2026-04-22 20:22 | 16.72499 | 72.82990 | 38816 ft | 511 kts | 122° |
| 2026-04-22 20:22 | 16.69348 | 72.89626 | 38817 ft | 510 kts | 122° |
| 2026-04-22 20:23 | 16.66191 | 72.96272 | 38815 ft | 510 kts | 123° |
| 2026-04-22 20:23 | 16.63041 | 73.02892 | 38822 ft | 509 kts | 123° |